createdAt,value
2017-11-20T00:02:22.840Z,4.36
2017-11-20T00:04:50.443Z,4.30
2017-11-20T00:07:18.113Z,4.39
2017-11-20T00:09:45.738Z,4.37
2017-11-20T00:12:13.698Z,4.37
2017-11-20T00:14:41.402Z,4.31
2017-11-20T00:17:09.330Z,4.33
2017-11-20T00:19:36.924Z,4.37
2017-11-20T00:22:04.537Z,4.34
2017-11-20T00:24:32.112Z,4.33
2017-11-20T00:26:59.750Z,4.30
2017-11-20T00:29:27.350Z,4.14
2017-11-20T00:31:55.206Z,4.19
2017-11-20T00:34:22.838Z,4.25
2017-11-20T00:36:50.747Z,4.20
2017-11-20T00:39:18.365Z,4.19
2017-11-20T00:41:45.992Z,4.10
2017-11-20T00:44:13.572Z,4.09
2017-11-20T00:46:41.188Z,4.18
2017-11-20T00:49:09.057Z,4.00
2017-11-20T00:51:36.703Z,3.99
2017-11-20T00:54:04.310Z,4.02
2017-11-20T00:56:31.902Z,4.00
2017-11-20T00:58:59.596Z,4.09
2017-11-20T01:01:27.233Z,4.07
2017-11-20T01:03:54.932Z,4.06
2017-11-20T01:06:22.543Z,4.06
2017-11-20T01:08:50.477Z,4.02
2017-11-20T01:11:18.089Z,3.99
2017-11-20T01:13:45.668Z,4.06
2017-11-20T01:16:13.562Z,4.01
2017-11-20T01:18:41.526Z,4.02
2017-11-20T01:21:09.193Z,4.04
2017-11-20T01:23:36.805Z,4.03
2017-11-20T01:26:04.428Z,3.97
2017-11-20T01:28:32.067Z,3.93
2017-11-20T01:30:59.651Z,3.90
2017-11-20T01:33:27.247Z,3.91
2017-11-20T01:35:54.857Z,3.96
2017-11-20T01:38:22.730Z,3.89
2017-11-20T01:40:50.709Z,3.85
2017-11-20T01:43:18.675Z,3.85
2017-11-20T01:45:46.269Z,3.86
2017-11-20T01:48:14.595Z,3.92
2017-11-20T01:50:42.191Z,3.85
2017-11-20T01:53:09.853Z,3.81
2017-11-20T01:55:37.436Z,3.67
2017-11-20T01:58:05.021Z,3.78
2017-11-20T02:00:32.675Z,3.74
2017-11-20T02:03:01.407Z,3.68
2017-11-20T02:05:29.025Z,3.68
2017-11-20T02:07:56.626Z,3.71
2017-11-20T02:10:24.303Z,3.62
2017-11-20T02:12:51.967Z,3.59
2017-11-20T02:15:19.572Z,3.58
2017-11-20T02:17:47.590Z,3.46
2017-11-20T02:20:15.173Z,3.45
2017-11-20T02:22:43.020Z,3.46
2017-11-20T02:25:10.636Z,3.44
2017-11-20T02:27:38.556Z,3.50
2017-11-20T02:30:06.218Z,3.51
2017-11-20T02:32:34.086Z,3.46
2017-11-20T02:35:01.663Z,3.59
2017-11-20T02:37:29.302Z,3.47
2017-11-20T02:39:56.889Z,3.44
2017-11-20T02:42:24.519Z,3.42
2017-11-20T02:44:52.101Z,3.36
2017-11-20T02:47:19.692Z,3.37
2017-11-20T02:49:47.351Z,3.41
2017-11-20T02:52:14.982Z,3.40
2017-11-20T02:54:42.602Z,3.31
2017-11-20T02:57:10.177Z,3.32
2017-11-20T02:59:37.873Z,3.39
2017-11-20T03:02:05.519Z,3.39
2017-11-20T03:04:33.121Z,3.39
2017-11-20T03:07:00.737Z,3.40
2017-11-20T03:09:28.326Z,3.49
2017-11-20T03:11:55.920Z,3.48
2017-11-20T03:14:23.521Z,3.51
2017-11-20T03:16:51.408Z,3.50
2017-11-20T03:19:19.092Z,3.45
2017-11-20T03:21:46.729Z,3.47
2017-11-20T03:24:14.599Z,3.51
2017-11-20T03:26:42.215Z,3.56
2017-11-20T03:29:10.125Z,3.67
2017-11-20T03:31:37.767Z,3.65
2017-11-20T03:34:05.344Z,3.73
2017-11-20T03:36:33.219Z,3.78
2017-11-20T03:39:00.832Z,3.78
2017-11-20T03:41:28.454Z,3.80
2017-11-20T03:43:56.093Z,3.84
2017-11-20T03:46:23.701Z,3.88
2017-11-20T03:48:51.333Z,4.03
2017-11-20T03:51:18.957Z,4.01
2017-11-20T03:53:46.557Z,4.14
2017-11-20T03:56:14.181Z,4.10
2017-11-20T03:58:41.763Z,4.10
2017-11-20T04:01:09.345Z,4.19
2017-11-20T04:03:36.953Z,4.19
2017-11-20T04:06:04.878Z,4.20
2017-11-20T04:08:32.521Z,4.22
2017-11-20T04:11:00.105Z,4.26
2017-11-20T04:13:27.966Z,4.34
2017-11-20T04:15:55.572Z,4.28
2017-11-20T04:18:23.154Z,4.20
2017-11-20T04:20:50.786Z,4.30
2017-11-20T04:23:18.379Z,4.31
2017-11-20T04:25:45.974Z,4.38
2017-11-20T04:28:13.601Z,4.39
2017-11-20T04:30:41.215Z,4.42
2017-11-20T04:33:08.837Z,4.47
2017-11-20T04:35:36.418Z,4.49
2017-11-20T04:38:04.002Z,4.48
2017-11-20T04:40:31.638Z,4.51
2017-11-20T04:42:59.226Z,4.45
2017-11-20T04:45:26.908Z,4.49
2017-11-20T04:47:54.508Z,4.48
2017-11-20T04:50:22.102Z,4.61
2017-11-20T04:52:49.701Z,4.58
2017-11-20T04:55:17.296Z,4.62
2017-11-20T04:57:44.923Z,4.71
2017-11-20T05:00:12.500Z,4.67
2017-11-20T05:02:40.088Z,4.67
2017-11-20T05:05:07.747Z,4.63
2017-11-20T05:07:35.378Z,4.71
2017-11-20T05:10:03.042Z,4.65
2017-11-20T05:12:31.194Z,4.65
2017-11-20T05:14:58.792Z,4.62
2017-11-20T05:17:26.389Z,4.67
2017-11-20T05:19:53.969Z,4.74
2017-11-20T05:22:21.597Z,4.68
2017-11-20T05:24:49.478Z,4.71
2017-11-20T05:27:17.056Z,4.67
2017-11-20T05:29:44.677Z,4.67
2017-11-20T05:32:12.274Z,4.74
2017-11-20T05:34:39.886Z,4.65
2017-11-20T05:37:07.517Z,4.69
2017-11-20T05:39:35.377Z,4.63
2017-11-20T05:42:03.329Z,4.62
2017-11-20T05:44:30.959Z,4.63
2017-11-20T05:46:58.628Z,4.61
2017-11-20T05:49:26.202Z,4.66
2017-11-20T05:51:53.847Z,4.58
2017-11-20T05:54:21.428Z,4.62
2017-11-20T05:56:49.401Z,4.67
2017-11-20T05:59:16.989Z,4.65
2017-11-20T06:01:44.573Z,4.62
2017-11-20T06:04:12.228Z,4.59
2017-11-20T06:06:40.055Z,4.56
2017-11-20T06:09:08.020Z,4.52
2017-11-20T06:11:35.609Z,4.64
2017-11-20T06:14:03.184Z,4.57
2017-11-20T06:16:30.802Z,4.60
2017-11-20T06:18:58.388Z,4.63
2017-11-20T06:21:26.010Z,4.64
2017-11-20T06:23:53.901Z,4.66
2017-11-20T06:26:21.775Z,4.66
2017-11-20T06:28:49.441Z,4.68
2017-11-20T06:31:17.042Z,4.75
2017-11-20T06:33:44.680Z,4.76
2017-11-20T06:36:12.261Z,4.79
2017-11-20T06:38:39.838Z,4.83
2017-11-20T06:41:07.754Z,4.76
2017-11-20T06:43:35.342Z,4.70
2017-11-20T06:46:03.295Z,4.87
2017-11-20T06:48:30.897Z,4.92
2017-11-20T06:50:58.543Z,4.86
2017-11-20T06:53:26.402Z,4.77
2017-11-20T06:55:53.986Z,4.80
2017-11-20T06:58:21.605Z,4.92
2017-11-20T07:00:49.186Z,4.90
2017-11-20T07:03:16.752Z,4.88
2017-11-20T07:05:44.440Z,4.91
2017-11-20T07:08:12.028Z,4.95
2017-11-20T07:10:39.653Z,4.85
2017-11-20T07:13:07.248Z,4.90
2017-11-20T07:15:34.836Z,4.93
2017-11-20T07:18:02.449Z,4.89
2017-11-20T07:20:37.913Z,5.02
2017-11-20T07:23:05.537Z,5.04
2017-11-20T07:28:46.689Z,5.05
2017-11-20T07:31:30.043Z,5.09
2017-11-20T07:34:09.494Z,5.11
2017-11-20T07:36:48.773Z,5.01
2017-11-20T07:39:17.335Z,4.90
2017-11-20T07:41:51.704Z,4.91
2017-11-20T07:44:19.677Z,4.89
2017-11-20T07:46:47.436Z,4.89
2017-11-20T07:49:15.012Z,4.76
2017-11-20T07:51:42.662Z,4.69
2017-11-20T07:54:10.257Z,4.74
2017-11-20T07:56:37.867Z,4.82
2017-11-20T07:59:05.490Z,4.80
2017-11-20T08:01:33.125Z,4.87
2017-11-20T08:04:00.763Z,4.90
2017-11-20T08:06:28.376Z,4.90
2017-11-20T08:08:55.975Z,4.96
2017-11-20T08:11:23.601Z,5.00
2017-11-20T08:13:51.213Z,4.97
2017-11-20T08:16:18.867Z,4.92
2017-11-20T08:18:46.463Z,5.01
2017-11-20T08:21:14.052Z,5.12
2017-11-20T08:23:41.681Z,5.05
2017-11-20T08:26:09.277Z,5.10
2017-11-20T08:28:36.922Z,5.09
2017-11-20T08:31:04.514Z,5.08
2017-11-20T08:33:32.107Z,5.20
2017-11-20T08:35:59.718Z,5.28
2017-11-20T08:38:27.320Z,5.27
2017-11-20T08:40:54.960Z,5.27
2017-11-20T08:43:22.878Z,5.30
2017-11-20T08:45:50.466Z,5.05
2017-11-20T08:48:18.083Z,5.36
2017-11-20T08:50:45.699Z,5.28
2017-11-20T08:53:13.344Z,5.37
2017-11-20T08:55:41.026Z,5.51
2017-11-20T08:58:08.863Z,5.66
2017-11-20T09:00:36.572Z,5.62
2017-11-20T09:03:04.307Z,5.72
2017-11-20T09:05:32.033Z,5.64
2017-11-20T09:07:59.627Z,5.61
2017-11-20T09:10:27.218Z,5.84
2017-11-20T09:12:54.904Z,5.86
2017-11-20T09:15:22.502Z,6.04
2017-11-20T09:17:50.366Z,6.06
2017-11-20T09:20:17.963Z,5.91
2017-11-20T09:22:45.907Z,6.08
2017-11-20T09:25:13.579Z,6.10
2017-11-20T09:27:41.180Z,6.07
2017-11-20T09:30:09.090Z,5.99
2017-11-20T09:32:36.679Z,6.22
2017-11-20T09:35:04.292Z,6.16
2017-11-20T09:37:31.952Z,6.25
2017-11-20T09:39:59.544Z,6.24
2017-11-20T09:42:27.192Z,6.44
2017-11-20T09:44:54.788Z,6.48
2017-11-20T09:47:22.948Z,6.49
2017-11-20T09:49:50.585Z,6.54
2017-11-20T09:52:18.215Z,6.48
2017-11-20T09:54:46.129Z,6.41
2017-11-20T09:57:13.725Z,6.39
2017-11-20T09:59:41.312Z,6.45
2017-11-20T10:02:08.927Z,6.46
2017-11-20T10:04:36.526Z,6.58
2017-11-20T10:07:04.183Z,6.70
2017-11-20T10:09:31.804Z,6.65
2017-11-20T10:11:59.413Z,6.68
2017-11-20T10:14:27.067Z,6.65
2017-11-20T10:16:54.670Z,6.67
2017-11-20T10:19:22.316Z,6.69
2017-11-20T10:21:49.923Z,6.87
2017-11-20T10:24:17.509Z,7.04
2017-11-20T10:26:45.118Z,7.13
2017-11-20T10:29:12.741Z,7.25
2017-11-20T10:31:40.360Z,7.27
2017-11-20T10:34:07.999Z,7.08
2017-11-20T10:36:35.601Z,7.12
2017-11-20T10:39:03.267Z,7.01
2017-11-20T10:41:32.039Z,7.04
2017-11-20T10:43:59.733Z,6.83
2017-11-20T10:46:27.665Z,6.89
2017-11-20T10:48:55.248Z,6.93
2017-11-20T10:51:22.881Z,7.11
2017-11-20T10:53:50.473Z,7.12
2017-11-20T10:56:18.414Z,7.25
2017-11-20T10:58:46.001Z,7.31
2017-11-20T11:01:13.650Z,7.34
2017-11-20T11:03:41.292Z,7.48
2017-11-20T11:06:08.877Z,7.47
2017-11-20T11:08:36.511Z,7.53
2017-11-20T11:11:04.327Z,7.65
2017-11-20T11:13:31.968Z,7.71
2017-11-20T11:15:59.631Z,7.83
2017-11-20T11:18:27.230Z,7.63
2017-11-20T11:20:55.178Z,7.76
2017-11-20T11:23:22.762Z,7.52
2017-11-20T11:25:50.407Z,7.44
2017-11-20T11:28:18.032Z,7.50
2017-11-20T11:30:45.652Z,7.46
2017-11-20T11:33:13.279Z,7.44
2017-11-20T11:35:40.878Z,7.15
2017-11-20T11:38:08.525Z,7.17
2017-11-20T11:40:36.161Z,7.22
2017-11-20T11:43:03.928Z,7.15
2017-11-20T11:45:31.550Z,7.21
2017-11-20T11:47:59.155Z,7.09
2017-11-20T11:50:26.802Z,7.21
2017-11-20T11:52:54.413Z,7.17
2017-11-20T11:55:22.760Z,7.21
2017-11-20T11:57:50.389Z,7.23
2017-11-20T12:00:18.030Z,7.26
2017-11-20T12:02:45.653Z,7.44
2017-11-20T12:05:13.260Z,7.43
2017-11-20T12:07:40.891Z,7.39
2017-11-20T12:10:08.505Z,7.24
2017-11-20T12:12:36.089Z,7.30
2017-11-20T12:15:03.705Z,7.50
2017-11-20T12:17:31.357Z,7.44
2017-11-20T12:19:58.945Z,7.32
2017-11-20T12:22:26.606Z,7.33
2017-11-20T12:24:54.243Z,7.12
2017-11-20T12:27:21.918Z,7.04
2017-11-20T12:29:49.549Z,7.11
2017-11-20T12:32:17.222Z,7.22
2017-11-20T12:34:45.015Z,7.09
2017-11-20T12:37:12.617Z,7.07
2017-11-20T12:39:40.302Z,7.06
2017-11-20T12:42:07.953Z,7.14
2017-11-20T12:44:35.726Z,7.28
2017-11-20T12:47:03.399Z,7.19
2017-11-20T12:49:31.211Z,7.10
2017-11-20T12:51:58.901Z,7.26
2017-11-20T12:54:26.566Z,7.22
2017-11-20T12:56:54.228Z,7.05
2017-11-20T12:59:21.846Z,6.97
2017-11-20T13:01:49.533Z,7.08
2017-11-20T13:04:17.261Z,6.95
2017-11-20T13:06:44.948Z,6.79
2017-11-20T13:09:12.644Z,6.74
2017-11-20T13:11:40.298Z,6.75
2017-11-20T13:14:07.903Z,6.94
2017-11-20T13:16:35.573Z,6.91
2017-11-20T13:19:03.282Z,6.86
2017-11-20T13:21:30.869Z,6.88
2017-11-20T13:23:58.521Z,6.86
2017-11-20T13:26:26.129Z,7.04
2017-11-20T13:28:53.774Z,7.08
2017-11-20T13:31:21.389Z,6.95
2017-11-20T13:33:48.973Z,6.98
2017-11-20T13:36:16.576Z,6.81
2017-11-20T13:38:44.168Z,6.89
2017-11-20T13:41:11.769Z,6.99
2017-11-20T13:43:39.398Z,7.00
2017-11-20T13:46:07.026Z,7.09
2017-11-20T13:48:35.682Z,7.00
2017-11-20T13:51:03.659Z,7.03
2017-11-20T13:53:31.271Z,7.07
2017-11-20T13:55:58.869Z,6.93
2017-11-20T13:58:27.362Z,7.08
2017-11-20T14:00:55.010Z,7.05
2017-11-20T14:03:22.699Z,7.06
2017-11-20T14:05:50.381Z,6.96
2017-11-20T14:08:17.982Z,6.92
2017-11-20T14:10:45.717Z,6.96
2017-11-20T14:13:13.468Z,6.96
2017-11-20T14:15:41.071Z,6.95
2017-11-20T14:18:08.717Z,6.84
2017-11-20T14:20:36.338Z,7.08
2017-11-20T14:23:04.081Z,7.01
2017-11-20T14:25:31.783Z,6.96
2017-11-20T14:27:59.390Z,6.93
2017-11-20T14:30:27.138Z,6.92
2017-11-20T14:32:54.870Z,6.83
2017-11-20T14:35:22.594Z,6.77
2017-11-20T14:37:50.231Z,6.72
2017-11-20T14:40:17.859Z,6.63
2017-11-20T14:42:45.705Z,6.67
2017-11-20T14:45:13.276Z,6.72
2017-11-20T14:47:40.950Z,6.67
2017-11-20T14:50:08.567Z,6.60
2017-11-20T14:52:37.813Z,6.59
2017-11-20T14:55:05.470Z,6.60
2017-11-20T14:57:33.065Z,6.61
2017-11-20T15:00:00.786Z,6.63
2017-11-20T15:02:28.438Z,6.60
2017-11-20T15:04:56.104Z,6.71
2017-11-20T15:07:23.719Z,6.66
2017-11-20T15:09:51.391Z,6.62
2017-11-20T15:12:19.019Z,6.58
2017-11-20T15:14:46.649Z,6.55
2017-11-20T15:17:14.260Z,6.43
2017-11-20T15:19:41.906Z,6.31
2017-11-20T15:22:09.519Z,6.33
2017-11-20T15:24:37.183Z,6.33
2017-11-20T15:27:04.963Z,6.32
2017-11-20T15:29:32.633Z,6.28
2017-11-20T15:32:00.381Z,6.25
2017-11-20T15:34:28.539Z,6.22
2017-11-20T15:36:56.192Z,6.21
2017-11-20T15:39:23.888Z,6.21
2017-11-20T15:41:51.520Z,6.30
2017-11-20T15:44:19.142Z,6.33
2017-11-20T15:46:47.123Z,6.30
2017-11-20T15:49:14.824Z,6.29
2017-11-20T15:51:42.399Z,6.30
2017-11-20T15:54:10.008Z,6.28
2017-11-20T15:56:37.662Z,6.19
2017-11-20T15:59:05.307Z,6.19
2017-11-20T16:01:32.957Z,6.23
2017-11-20T16:04:00.617Z,6.25
2017-11-20T16:06:28.220Z,6.23
2017-11-20T16:08:55.911Z,6.22
2017-11-20T16:11:23.524Z,6.21
2017-11-20T16:13:51.281Z,6.23
2017-11-20T16:16:18.877Z,6.23
2017-11-20T16:18:46.469Z,6.20
2017-11-20T16:23:48.312Z,6.27
2017-11-20T16:26:15.969Z,6.24
2017-11-20T16:28:43.749Z,6.14
2017-11-20T16:31:12.455Z,6.10
2017-11-20T16:33:40.234Z,6.12
2017-11-20T16:36:07.913Z,6.12
2017-11-20T16:38:35.622Z,6.07
2017-11-20T16:41:03.304Z,6.00
2017-11-20T16:43:31.024Z,5.97
2017-11-20T16:45:58.683Z,5.95
2017-11-20T16:48:26.419Z,6.02
2017-11-20T16:50:54.061Z,5.91
2017-11-20T16:53:21.692Z,5.86
2017-11-20T16:55:49.366Z,5.86
2017-11-20T17:01:40.459Z,5.99
2017-11-20T17:04:08.074Z,5.88
2017-11-20T17:06:35.682Z,5.95
2017-11-20T17:09:03.342Z,5.86
2017-11-20T17:11:31.314Z,5.81
2017-11-20T17:13:58.929Z,5.77
2017-11-20T17:16:26.562Z,5.77
2017-11-20T17:18:54.178Z,5.84
2017-11-20T17:21:21.802Z,5.84
2017-11-20T17:23:49.404Z,5.84
2017-11-20T17:26:17.011Z,5.80
2017-11-20T17:28:44.629Z,5.91
2017-11-20T17:31:12.223Z,5.89
2017-11-20T17:33:39.911Z,5.89
2017-11-20T17:36:07.531Z,5.81
2017-11-20T17:38:35.138Z,5.73
2017-11-20T17:41:02.747Z,5.77
2017-11-20T17:43:30.346Z,5.75
2017-11-20T17:45:57.997Z,5.75
2017-11-20T17:48:25.592Z,5.77
2017-11-20T17:50:53.516Z,5.73
2017-11-20T17:53:21.154Z,5.73
2017-11-20T17:55:48.740Z,5.71
2017-11-20T17:58:16.375Z,5.69
2017-11-20T18:00:43.977Z,5.74
2017-11-20T18:03:11.593Z,5.77
2017-11-20T18:05:39.488Z,5.76
2017-11-20T18:08:07.070Z,5.76
2017-11-20T18:10:35.017Z,5.75
2017-11-20T18:13:02.613Z,5.79
2017-11-20T18:15:30.218Z,5.82
2017-11-20T18:17:57.854Z,5.78
2017-11-20T18:20:25.449Z,5.78
2017-11-20T18:22:53.442Z,5.79
2017-11-20T18:25:21.080Z,5.88
2017-11-20T18:27:48.678Z,5.79
2017-11-20T18:30:16.305Z,5.79
2017-11-20T18:32:43.898Z,5.73
2017-11-20T18:35:11.526Z,5.71
2017-11-20T18:37:39.123Z,5.66
2017-11-20T18:40:06.721Z,5.66
2017-11-20T18:42:34.351Z,5.67
2017-11-20T18:45:01.941Z,5.67
2017-11-20T18:47:29.574Z,5.74
2017-11-20T18:49:57.526Z,5.70
2017-11-20T18:52:25.105Z,5.62
2017-11-20T18:54:52.786Z,5.59
2017-11-20T18:57:20.373Z,5.64
2017-11-20T18:59:48.002Z,5.66
2017-11-20T19:05:34.340Z,5.70
2017-11-20T19:08:13.784Z,5.70
2017-11-20T19:10:41.426Z,5.70
2017-11-20T19:13:09.073Z,5.69
2017-11-20T19:15:36.932Z,5.67
2017-11-20T19:18:04.545Z,5.68
2017-11-20T19:20:32.155Z,5.57
2017-11-20T19:22:59.811Z,5.62
2017-11-20T19:25:27.422Z,5.63
2017-11-20T19:27:55.166Z,5.61
2017-11-20T19:30:23.068Z,5.61
2017-11-20T19:32:50.658Z,5.60
2017-11-20T19:35:18.354Z,5.50
2017-11-20T19:37:45.992Z,5.52
2017-11-20T19:40:13.604Z,5.52
2017-11-20T19:42:41.253Z,5.54
2017-11-20T19:45:08.901Z,5.54
2017-11-20T19:47:36.678Z,5.59
2017-11-20T19:50:04.381Z,5.61
2017-11-20T19:52:32.286Z,5.58
2017-11-20T19:54:59.913Z,5.56
2017-11-20T19:57:27.933Z,5.60
2017-11-20T19:59:55.594Z,5.62
2017-11-20T20:02:23.216Z,5.55
2017-11-20T20:04:51.034Z,5.55
2017-11-20T20:07:18.753Z,5.51
2017-11-20T20:09:46.373Z,5.54
2017-11-20T20:12:14.016Z,5.54
2017-11-20T20:14:53.639Z,5.51
2017-11-20T20:17:21.323Z,5.48
2017-11-20T20:19:48.926Z,5.42
2017-11-20T20:22:16.546Z,5.43
2017-11-20T20:24:44.172Z,5.43
2017-11-20T20:27:11.776Z,5.26
2017-11-20T20:29:39.441Z,5.32
2017-11-20T20:32:07.050Z,5.31
2017-11-20T20:34:34.654Z,5.37
2017-11-20T20:37:02.285Z,5.32
2017-11-20T20:39:29.900Z,5.32
2017-11-20T20:41:57.556Z,5.36
2017-11-20T20:44:25.198Z,5.31
2017-11-20T20:46:52.838Z,5.28
2017-11-20T20:49:20.465Z,5.29
2017-11-20T20:51:48.112Z,5.24
2017-11-20T20:54:15.759Z,5.28
2017-11-20T20:56:43.363Z,5.30
2017-11-20T20:59:11.399Z,5.28
2017-11-20T21:01:39.062Z,5.37
2017-11-20T21:04:06.684Z,5.34
2017-11-20T21:06:34.686Z,5.31
2017-11-20T21:09:02.300Z,5.36
2017-11-20T21:11:35.425Z,5.28
2017-11-20T21:14:03.041Z,5.28
2017-11-20T21:16:30.636Z,5.26
2017-11-20T21:18:58.250Z,5.26
2017-11-20T21:21:26.292Z,5.25
2017-11-20T21:23:53.955Z,5.34
2017-11-20T21:26:21.556Z,5.41
2017-11-20T21:28:49.160Z,5.43
2017-11-20T21:31:17.043Z,5.24
2017-11-20T21:33:44.653Z,5.24
2017-11-20T21:36:12.287Z,5.22
2017-11-20T21:38:40.239Z,5.35
2017-11-20T21:41:08.105Z,5.38
2017-11-20T21:43:35.733Z,5.32
2017-11-20T21:46:03.324Z,5.19
2017-11-20T21:48:30.994Z,5.09
2017-11-20T21:50:58.857Z,5.15
2017-11-20T21:53:26.474Z,5.11
2017-11-20T21:55:54.090Z,5.07
2017-11-20T21:58:21.739Z,5.09
2017-11-20T22:00:49.437Z,5.16
2017-11-20T22:03:17.035Z,5.10
2017-11-20T22:05:44.618Z,5.10
2017-11-20T22:08:12.596Z,4.98
2017-11-20T22:10:40.190Z,4.96
2017-11-20T22:16:05.689Z,4.91
2017-11-20T22:18:33.316Z,4.97
2017-11-20T22:21:00.929Z,4.97
2017-11-20T22:23:28.549Z,4.97
2017-11-20T22:25:56.140Z,4.96
2017-11-20T22:28:23.744Z,4.97
2017-11-20T22:30:51.354Z,4.93
2017-11-20T22:33:18.954Z,4.93
2017-11-20T22:35:46.572Z,4.85
2017-11-20T22:38:14.184Z,4.86
2017-11-20T22:40:41.771Z,4.73
2017-11-20T22:43:09.480Z,4.75
2017-11-20T22:45:37.450Z,4.80
2017-11-20T22:48:05.421Z,4.88
2017-11-20T22:50:33.016Z,4.77
2017-11-20T22:53:00.621Z,4.78
2017-11-20T22:55:28.235Z,4.68
2017-11-20T22:57:55.822Z,4.67
2017-11-20T23:00:23.459Z,4.60
2017-11-20T23:02:51.059Z,4.64
2017-11-20T23:05:18.663Z,4.76
2017-11-20T23:07:46.336Z,4.76
2017-11-20T23:10:13.917Z,4.75
2017-11-20T23:12:41.551Z,4.71
2017-11-20T23:15:09.143Z,4.76
2017-11-20T23:17:36.746Z,4.75
2017-11-20T23:20:04.358Z,4.76
2017-11-20T23:22:31.946Z,4.78
2017-11-20T23:24:59.852Z,4.80
2017-11-20T23:27:27.809Z,4.74
2017-11-20T23:29:55.395Z,4.80
2017-11-20T23:32:23.005Z,4.80
2017-11-20T23:34:50.604Z,4.73
2017-11-20T23:37:18.238Z,4.75
2017-11-20T23:39:45.822Z,4.81
2017-11-20T23:42:13.414Z,4.83
2017-11-20T23:44:41.368Z,4.91
2017-11-20T23:47:09.012Z,4.92
2017-11-20T23:49:36.588Z,4.87
2017-11-20T23:52:04.549Z,4.87
2017-11-20T23:54:38.262Z,4.88
2017-11-20T23:57:06.130Z,4.87
2017-11-20T23:59:34.009Z,4.85
